Latest Coastal Weather Observations for Newcastle Nobbys

IDN60701

Issued at 6:15 am EST Wednesday 1 October 2014 (issued every 10 minutes, with the page automatically refreshed every 10 minutes)

About coastal observations | Map of coastal stations | Coastal observations for NSW | Marine services | Other Formats
Station Details ID: 061055 Name: NEWCASTLE NOBBYS SIGNAL STATION AWS Lat: -32.92 Lon: 151.80 Height: 33.0 m
Data from the previous 72 hours. | See also: Recent months at Newcastle Nobbys
Date/Time
EST
Temp

°C
Wind Pressure Rain
since 9am
mm
Weather Cloud Vis
km
Sea
Height
m
Swell
Dir
 
Speed
knots
Gust
knots
hPa Trend Height
m
Period
s
Dir
01/06:00am 18.8 S 23 28 - - 0.0 - - - - - - -
01/05:30am 19.1 S 23 28 - - 0.0 - - - - - - -
01/05:00am 19.7 S 24 31 - - 0.0 - - - - - - -
01/04:32am 21.3 SSW 16 25 - - 0.0 - - - - - - -
01/04:30am 21.4 W 7 8 - - 0.0 - - - - - - -
01/04:00am 20.0 W 5 7 - - 0.0 - - - - - - -
01/03:30am 21.1 W 5 5 - - 0.0 - - - - - - -
01/03:00am 22.0 WNW 4 5 - - 0.0 - - - - - - -
01/02:30am 22.2 NNW 7 8 - - 0.0 - - - - - - -
01/02:00am 22.4 NW 5 7 - - 0.0 - - - - - - -
01/01:30am 22.7 NW 7 8 - - 0.0 - - - - - - -
01/01:00am 23.1 WNW 7 8 - - 0.0 - - - - - - -
01/12:30am 23.1 NW 8 10 - - 0.0 - - - - - - -
01/12:00am 22.7 NNW 8 10 - - 0.0 - - - - - - -
 
Date/Time
EST
Temp

°C
Wind Pressure Rain
since 9am
mm
Weather Cloud Vis
km
Sea
Height
m
Swell
Dir
 
Speed
knots
Gust
knots
hPa Trend Height
m
Period
s
Dir
30/11:30pm 22.3 NW 7 10 - - 0.0 - - - - - - -
30/11:00pm 21.9 NNW 5 7 - - 0.0 - - - - - - -
30/10:30pm 21.9 NNW 6 7 - - 0.0 - - - - - - -
30/10:00pm 22.2 NNW 5 7 - - 0.0 - - - - - - -
30/09:30pm 23.1 NNW 5 7 - - 0.0 - - - - - - -
30/09:00pm 22.9 NNW 5 6 - - 0.0 - - - - - - -
30/08:30pm 23.3 NNW 4 6 - - 0.0 - - - - - - -
30/08:00pm 24.9 NNW 6 8 - - 0.0 - - - - - - -
30/07:30pm 24.8 N 6 6 - - 0.0 - - - - - - -
30/07:00pm 26.1 N 7 8 - - 0.0 - - - - - - -
30/06:30pm 26.6 N 7 9 - - 0.0 - - - - - - -
30/06:00pm 27.4 N 12 16 - - 0.0 - - - - - - -
30/05:30pm 28.8 NNW 14 17 - - 0.0 - - - - - - -
30/05:00pm 28.6 N 13 16 - - 0.0 - - - - - - -
30/04:30pm 28.6 N 10 14 - - 0.0 - - - - - - -
30/04:00pm 28.9 N 12 15 - - 0.0 - - - - - - -
30/03:30pm 28.3 NNW 11 17 - - 0.0 - - - - - - -
30/03:00pm 27.5 N 12 14 - - 0.0 - - - - - - -
30/02:30pm 23.7 NNE 11 13 - - 0.0 - - - - - - -
30/02:00pm 24.1 NE 9 13 - - 0.0 - - - - - - -
30/01:30pm 24.2 NE 7 8 - - 0.0 - - - - - - -
30/01:00pm 25.6 NNE 5 8 - - 0.0 - - - - - - -
30/12:30pm 26.8 N 6 8 - - 0.0 - - - - - - -
30/12:00pm 26.4 N 6 9 - - 0.0 - - - - - - -
30/11:30am 26.5 N 8 10 - - 0.0 - - - - - - -
30/11:00am 26.0 N 8 11 - - 0.0 - - - - - - -
30/10:30am 26.9 NNW 8 12 - - 0.0 - - - - - - -
30/10:00am 24.8 NNW 6 11 - - 0.0 - - - - - - -
30/09:30am 24.2 NNW 8 10 - - 0.0 - - - - - - -
30/09:00am 22.0 N 10 12 - - 0.0 - - - - - - -
30/08:30am 20.6 NNW 6 8 - - 0.0 - - - - - - -
30/08:00am 19.6 N 10 12 - - 0.0 - - - - - - -
30/07:30am 18.8 N 7 9 - - 0.0 - - - - - - -
30/07:00am 18.9 N 6 10 - - 0.0 - - - - - - -
30/06:30am 17.9 NNW 8 10 - - 0.0 - - - - - - -
30/06:00am 17.9 N 9 11 - - 0.0 - - - - - - -
30/05:30am 17.6 N 9 11 - - 0.0 - - - - - - -
30/05:00am 17.5 N 8 10 - - 0.0 - - - - - - -
30/04:30am 17.4 N 10 11 - - 0.0 - - - - - - -
30/04:00am 17.1 N 9 11 - - 0.0 - - - - - - -
30/03:30am 16.9 N 8 10 - - 0.0 - - - - - - -
30/03:00am 17.8 N 7 8 - - 0.0 - - - - - - -
30/02:30am 18.2 NNW 5 8 - - 0.0 - - - - - - -
30/02:00am 20.4 NNW 10 12 - - 0.0 - - - - - - -
30/01:30am 18.1 N 7 8 - - 0.0 - - - - - - -
30/01:00am 19.1 N 9 10 - - 0.0 - - - - - - -
30/12:30am 19.4 NNW 8 10 - - 0.0 - - - - - - -
30/12:00am 20.4 NW 8 11 - - 0.0 - - - - - - -
 
Date/Time
EST
Temp

°C
Wind Pressure Rain
since 9am
mm
Weather Cloud Vis
km
Sea
Height
m
Swell
Dir
 
Speed
knots
Gust
knots
hPa Trend Height
m
Period
s
Dir
29/11:30pm 19.4 N 5 6 - - 0.0 - - - - - - -
29/11:00pm 20.0 N 5 6 - - 0.0 - - - - - - -
29/10:30pm 19.7 N 4 5 - - 0.0 - - - - - - -
29/10:00pm 20.7 NNW 5 5 - - 0.0 - - - - - - -
29/09:30pm 20.6 NNW 3 4 - - 0.0 - - - - - - -
29/09:00pm 21.2 N 4 5 - - 0.0 - - - - - - -
29/08:30pm 22.0 N 3 4 - - 0.0 - - - - - - -
29/08:00pm 22.0 NNE 5 5 - - 0.0 - - - - - - -
29/07:30pm 22.7 N 3 5 - - 0.0 - - - - - - -
29/07:00pm 23.9 N 4 5 - - 0.0 - - - - - - -
29/06:30pm 26.2 N 5 6 - - 0.0 - - - - - - -
29/06:00pm 26.0 N 6 8 - - 0.0 - - - - - - -
29/05:30pm 26.8 NNW 7 10 - - 0.0 - - - - - - -
29/05:00pm 27.5 N 8 10 - - 0.0 - - - - - - -
29/04:30pm 27.8 NNW 14 18 - - 0.0 - - - - - - -
29/04:00pm 28.4 NNW 13 17 - - 0.0 - - - - - - -
29/03:30pm 28.8 NNW 12 16 - - 0.0 - - - - - - -
29/03:00pm 29.5 NW 10 15 - - 0.0 - - - - - - -
29/02:30pm 29.5 NW 13 18 - - 0.0 - - - - - - -
29/02:00pm 29.1 NNW 12 17 - - 0.0 - - - - - - -
29/01:30pm 28.6 NW 13 19 - - 0.0 - - - - - - -
29/01:00pm 28.7 NNW 10 14 - - 0.0 - - - - - - -
29/12:30pm 28.2 NW 13 18 - - 0.0 - - - - - - -
29/12:00pm 28.0 NW 15 21 - - 0.0 - - - - - - -
29/11:30am 27.3 NW 15 19 - - 0.0 - - - - - - -
29/11:00am 26.6 NW 15 20 - - 0.0 - - - - - - -
29/10:30am 25.2 NW 15 23 - - 0.0 - - - - - - -
29/10:00am 24.0 NW 13 18 - - 0.0 - - - - - - -
29/09:30am 22.3 NNW 13 17 - - 0.0 - - - - - - -
29/09:00am 21.6 NNW 13 17 - - 0.0 - - - - - - -
29/08:30am 20.4 NNW 11 16 - - 0.0 - - - - - - -
29/08:00am 18.4 NNW 11 15 - - 0.0 - - - - - - -
29/07:30am 16.9 NNW 11 14 - - 0.0 - - - - - - -
29/07:00am 15.6 NNW 10 13 - - 0.0 - - - - - - -
29/06:30am 14.3 NNW 9 12 - - 0.0 - - - - - - -
29/06:00am 13.5 NNW 7 9 - - 0.0 - - - - - - -
29/05:30am 13.8 NNW 10 11 - - 0.0 - - - - - - -
29/05:00am 13.8 NNW 10 12 - - 0.0 - - - - - - -
29/04:30am 14.2 N 11 12 - - 0.0 - - - - - - -
29/04:00am 14.5 N 8 10 - - 0.0 - - - - - - -
29/03:30am 14.0 NNW 5 8 - - 0.0 - - - - - - -
29/03:00am 14.4 NW 6 8 - - 0.0 - - - - - - -
29/02:30am 14.6 NNW 10 14 - - 0.0 - - - - - - -
29/02:00am 15.0 NNW 6 7 - - 0.0 - - - - - - -
29/01:30am 15.0 N 8 9 - - 0.0 - - - - - - -
29/01:00am 15.3 N 7 8 - - 0.0 - - - - - - -
29/12:30am 15.7 N 6 9 - - 0.0 - - - - - - -
29/12:00am 15.9 N 6 9 - - 0.0 - - - - - - -
 
Date/Time
EST
Temp

°C
Wind Pressure Rain
since 9am
mm
Weather Cloud Vis
km
Sea
Height
m
Swell
Dir
 
Speed
knots
Gust
knots
hPa Trend Height
m
Period
s
Dir
28/11:30pm 16.1 N 5 7 - - 0.0 - - - - - - -
28/11:00pm 16.5 NNE 8 10 - - 0.0 - - - - - - -
28/10:30pm 16.7 NNE 13 14 - - 0.0 - - - - - - -
28/10:00pm 16.8 NNE 8 11 - - 0.0 - - - - - - -
28/09:30pm 17.2 NNE 12 16 - - 0.0 - - - - - - -
28/09:00pm 17.1 NE 10 13 - - 0.0 - - - - - - -
28/08:30pm 17.4 NE 15 20 - - 0.0 - - - - - - -
28/08:00pm 17.7 NE 13 19 - - 0.0 - - - - - - -
28/07:30pm 18.0 NE 15 20 - - 0.0 - - - - - - -
28/07:00pm 18.2 NE 16 20 - - 0.0 - - - - - - -
28/06:30pm 18.2 NE 13 18 - - 0.0 - - - - - - -
28/06:00pm 18.5 ENE 12 15 - - 0.0 - - - - - - -
28/05:30pm 18.7 ENE 15 19 - - 0.0 - - - - - - -
28/05:00pm 18.9 ENE 15 19 - - 0.0 - - - - - - -
28/04:30pm 19.3 ENE 15 19 - - 0.0 - - - - - - -
28/04:00pm 19.3 ENE 17 20 - - 0.0 - - - - - - -
28/03:30pm 19.4 ENE 17 20 - - 0.0 - - - - - - -
28/03:00pm 19.4 E 17 19 - - 0.0 - - - - - - -
28/02:30pm 19.3 E 16 19 - - 0.0 - - - - - - -
28/02:00pm 19.5 E 15 18 - - 0.0 - - - - - - -
28/01:30pm 19.7 E 14 16 - - 0.0 - - - - - - -
28/01:00pm 19.6 E 12 14 - - 0.0 - - - - - - -
28/12:30pm 19.7 E 11 13 - - 0.0 - - - - - - -
28/12:00pm 19.8 E 9 11 - - 0.0 - - - - - - -
28/11:30am 20.3 E 6 8 - - 0.0 - - - - - - -
28/11:00am 20.6 ESE 4 5 - - 0.0 - - - - - - -
28/10:30am 21.5 ENE 3 4 - - 0.0 - - - - - - -
28/10:00am 20.1 N 3 4 - - 0.0 - - - - - - -
28/09:30am 18.4 N 6 7 - - 0.0 - - - - - - -
28/09:00am 17.5 NNW 5 8 - - 0.0 - - - - - - -
28/08:30am 16.0 NW 8 10 - - 0.0 - - - - - - -
28/08:00am 14.8 NW 8 9 - - 0.0 - - - - - - -
28/07:30am 12.9 NW 7 9 - - 0.0 - - - - - - -
28/07:00am 12.3 NW 6 7 - - 0.0 - - - - - - -
28/06:30am 12.2 NW 6 7 - - 0.0 - - - - - - -

Other Formats:

Comma delimited format used in spreadsheet applications
http://www.bom.gov.au/fwo/IDN60701/IDN60701.94774.axf

JavaScript Object Notation format (JSON) in row-major order
http://www.bom.gov.au/fwo/IDN60701/IDN60701.94774.json